Aérodrome :
LOGIN :

S'inscrire | Disclaimer

   EN    FR    IT 

 










Légende :    VFR   VFR Marginal   IFR   IFR Intensif   IFR Très Intensif
Visi : 
Plafond : 
>= 8 km
>= 3000ft
5 à 8 km
1000 à 3000 ft
1500m à 5 km
500 à 1000 ft
800 à 1500m
200 à 500 ft
< 800m
< 200 ft
Symboles :   Orages  Brouillard  Fortes neiges  Fortes précipitations  Vent > 20 kt
SIGMETs :   Divers  Orages  Givrage  Turbulence  Onde Orograph.  Cendres Volcan.







- Altitude de l'aérodrome : 256 ft
- Code IATA : CFR
- Voir les cartes d'approche


LFRK - Caen

DERNIER METAR :
  • 261200Z AUTO 23008KT 9999 BKN014 OVC020 20/18 Q1011 TEMPO 3000 RADZ BKN008

METARs EXPIRÉS :
  • 261130Z AUTO 23009KT 200V260 9999 BKN009 OVC014 20/18 Q1011 TEMPO 3000 RADZ
  • 261100Z AUTO 23012KT 7000 -RADZ OVC011 19/18 Q1011 TEMPO 3000 RA BKN003
  • 261030Z AUTO 24011KT 9999 OVC011 19/18 Q1011 TEMPO 3000 RA BKN003
  • 261000Z AUTO 24009KT 200V260 9999 OVC012 19/17 Q1011 TEMPO 3000 RA BKN003
  • 260930Z AUTO 21009KT 9999 -DZ OVC013 18/17 Q1011 TEMPO 3000 RA BKN003

TAF TAF LFRK
Valide du 26 à 12h jusqu'au 26 à 21h UTC


261100Z 2612/2621 23010KT 5000 RADZ BKN012
TEMPO 2612/2619 3000 RADZ BKN008
TEMPO 2615/2618 23015G25KT
Météo : +33 2 31 26 68 11
Pas de NOTAMs connus pour ce terrain.



MET'MAP, la Météo Aéronautique d'un coup d'oeil ! - Copyright ORBIFLY Décembre 2007 - Disclaimer

ORBIFLY MET'MAP TEAM :

Programmation & Développement : Alexandra Zaïnal
Conception & Développement : Baudouin d'Aumeries
Co-Programmation & Développement : Marc-Olivier Méhu
Soutien technique & logistique : Manuel Goepfert

Contact : metmap@orbifly.com




SOURCES & CREDITS :

   NOAA